Ames, South Dakota
Current Conditions -  °F | °C
As of 6:53 AM on Saturday 25 Oct 2014 (Local Time) from KPIR Reporting Station
Clear Clear  
Wind Chill: 43°   Ceiling: Unl
Heat Index: 43°   Visibility: 10mi
Dew Point: 35°   Wind: 3mph
Humidity: 74%   Direction: 260°W
Pressure: 30.13"   Gusts: NA
Location:  44.3693°N, 100.04°W
Report Text: KPIR 251153Z AUTO 26003KT 10SM CLR 06/02 A3013 RMK AO2 SLP202 T00610017 10128 20044 53006
Loading
Personal Weather Stations






























Interactive Weather Map New forecast layout! Learn more

10-Day Weather Forecast

Advertisements
Track Severe Weather on mobile